createdAt,value
2023-02-01T00:00:24.023Z,97768.00
2023-02-01T00:02:50.384Z,97766.00
2023-02-01T00:05:16.792Z,97755.00
2023-02-01T00:07:43.049Z,97768.00
2023-02-01T00:10:10.168Z,97757.00
2023-02-01T00:12:36.434Z,97761.00
2023-02-01T00:15:02.926Z,97775.00
2023-02-01T00:17:29.119Z,97761.00
2023-02-01T00:19:55.269Z,97762.00
2023-02-01T00:22:21.495Z,97750.00
2023-02-01T00:24:47.623Z,97767.00
2023-02-01T00:27:17.845Z,97769.00
2023-02-01T00:29:45.271Z,97762.00
2023-02-01T00:32:11.855Z,97751.00
2023-02-01T00:34:38.002Z,97755.00
2023-02-01T00:37:04.222Z,97753.00
2023-02-01T00:39:30.380Z,97747.00
2023-02-01T00:41:56.674Z,97766.00
2023-02-01T00:44:22.838Z,97750.00
2023-02-01T00:46:49.047Z,97750.00
2023-02-01T00:49:15.330Z,97756.00
2023-02-01T00:51:41.536Z,97760.00
2023-02-01T00:54:07.723Z,97762.00
2023-02-01T00:56:34.052Z,97760.00
2023-02-01T00:59:00.239Z,97761.00
2023-02-01T01:01:28.300Z,97750.00
2023-02-01T01:04:00.033Z,97750.00
2023-02-01T01:06:31.075Z,97762.00
2023-02-01T01:09:00.390Z,97766.00
2023-02-01T01:11:31.497Z,97757.00
2023-02-01T01:13:59.855Z,97752.00
2023-02-01T01:16:29.261Z,97735.00
2023-02-01T01:18:56.448Z,97725.00
2023-02-01T01:21:23.426Z,97718.00
2023-02-01T01:23:49.995Z,97706.00
2023-02-01T01:26:25.724Z,97712.00
2023-02-01T01:28:52.584Z,97724.00
2023-02-01T01:31:21.108Z,97705.00
2023-02-01T01:33:53.762Z,97732.00
2023-02-01T01:36:21.375Z,97729.00
2023-02-01T01:38:47.815Z,97723.00
2023-02-01T01:41:22.225Z,97731.00
2023-02-01T01:44:26.890Z,97746.00
2023-02-01T01:46:53.389Z,97732.00
2023-02-01T01:49:25.421Z,97730.00
2023-02-01T01:51:57.775Z,97734.00
2023-02-01T01:54:34.594Z,97724.00
2023-02-01T01:57:31.842Z,97713.00
2023-02-01T02:00:08.947Z,97751.00
2023-02-01T02:02:48.565Z,97735.00
2023-02-01T02:05:18.403Z,97757.00
2023-02-01T02:07:50.209Z,97739.00
2023-02-01T02:10:17.296Z,97731.00
2023-02-01T02:12:48.373Z,97738.00
2023-02-01T02:15:17.216Z,97737.00
2023-02-01T02:17:58.610Z,97708.00
2023-02-01T02:20:58.594Z,97702.00
2023-02-01T02:24:00.515Z,97714.00
2023-02-01T02:26:43.267Z,97719.00
2023-02-01T02:29:36.629Z,97703.00
2023-02-01T02:32:46.918Z,97712.00
2023-02-01T02:35:43.036Z,97700.00
2023-02-01T02:38:29.989Z,97700.00
2023-02-01T02:41:38.645Z,97696.00
2023-02-01T02:44:36.430Z,97689.00
2023-02-01T02:47:25.662Z,97693.00
2023-02-01T02:50:29.420Z,97713.00
2023-02-01T02:53:37.430Z,97696.00
2023-02-01T02:56:26.854Z,97707.00
2023-02-01T02:59:14.509Z,97693.00
2023-02-01T03:02:01.048Z,97693.00
2023-02-01T03:04:27.415Z,97688.00
2023-02-01T03:06:54.180Z,97699.00
2023-02-01T03:09:32.358Z,97690.00
2023-02-01T03:12:28.247Z,97684.00
2023-02-01T03:15:05.917Z,97669.00
2023-02-01T03:17:42.718Z,97670.00
2023-02-01T03:20:13.837Z,97664.00
2023-02-01T03:22:44.186Z,97677.00
2023-02-01T03:25:25.574Z,97682.00
2023-02-01T03:28:09.171Z,97692.00
2023-02-01T03:30:39.440Z,97670.00
2023-02-01T03:33:21.147Z,97688.00
2023-02-01T03:36:23.292Z,97691.00
2023-02-01T03:39:17.402Z,97692.00
2023-02-01T03:41:53.963Z,97696.00
2023-02-01T03:44:32.739Z,97680.00
2023-02-01T03:47:09.330Z,97685.00
2023-02-01T03:49:45.386Z,97704.00
2023-02-01T03:52:17.947Z,97688.00
2023-02-01T03:54:47.353Z,97683.00
2023-02-01T03:57:20.976Z,97687.00
2023-02-01T03:59:47.264Z,97678.00
2023-02-01T04:02:13.492Z,97670.00
2023-02-01T04:04:39.669Z,97696.00
2023-02-01T04:07:06.579Z,97671.00
2023-02-01T04:09:32.737Z,97668.00
2023-02-01T04:11:58.964Z,97669.00
2023-02-01T04:14:25.146Z,97676.00
2023-02-01T04:16:51.451Z,97664.00
2023-02-01T04:19:17.783Z,97674.00
2023-02-01T04:21:44.040Z,97677.00
2023-02-01T04:24:10.812Z,97678.00
2023-02-01T04:26:37.002Z,97660.00
2023-02-01T04:29:03.304Z,97666.00
2023-02-01T04:31:29.589Z,97674.00
2023-02-01T04:33:57.706Z,97656.00
2023-02-01T04:36:24.044Z,97642.00
2023-02-01T04:38:51.688Z,97640.00
2023-02-01T04:41:19.486Z,97632.00
2023-02-01T04:43:51.204Z,97629.00
2023-02-01T04:46:17.470Z,97620.00
2023-02-01T04:48:43.762Z,97608.00
2023-02-01T04:51:10.972Z,97616.00
2023-02-01T04:53:37.393Z,97628.00
2023-02-01T04:56:03.956Z,97614.00
2023-02-01T04:58:30.460Z,97637.00
2023-02-01T05:00:56.985Z,97629.00
2023-02-01T05:03:23.234Z,97632.00
2023-02-01T05:05:49.599Z,97622.00
2023-02-01T05:08:16.270Z,97640.00
2023-02-01T05:10:42.409Z,97635.00
2023-02-01T05:13:29.431Z,97636.00
2023-02-01T05:15:55.617Z,97633.00
2023-02-01T05:18:21.819Z,97631.00
2023-02-01T05:20:47.931Z,97646.00
2023-02-01T05:23:14.167Z,97640.00
2023-02-01T05:25:40.315Z,97638.00
2023-02-01T05:28:06.518Z,97629.00
2023-02-01T05:30:35.331Z,97644.00
2023-02-01T05:33:03.154Z,97648.00
2023-02-01T05:35:29.771Z,97638.00
2023-02-01T05:37:56.054Z,97646.00
2023-02-01T05:40:22.513Z,97634.00
2023-02-01T05:42:48.957Z,97647.00
2023-02-01T05:45:15.111Z,97622.00
2023-02-01T05:47:41.279Z,97617.00
2023-02-01T05:50:08.028Z,97625.00
2023-02-01T05:52:34.193Z,97626.00
2023-02-01T05:55:00.435Z,97616.00
2023-02-01T05:57:26.693Z,97624.00
2023-02-01T05:59:52.907Z,97622.00
2023-02-01T06:02:19.149Z,97637.00
2023-02-01T06:04:45.324Z,97636.00
2023-02-01T06:07:11.780Z,97632.00
2023-02-01T06:09:38.092Z,97640.00
2023-02-01T06:12:05.032Z,97639.00
2023-02-01T06:14:31.193Z,97644.00
2023-02-01T06:16:57.594Z,97655.00
2023-02-01T06:19:24.585Z,97643.00
2023-02-01T06:21:51.111Z,97628.00
2023-02-01T06:24:17.692Z,97609.00
2023-02-01T06:26:43.862Z,97617.00
2023-02-01T06:29:11.285Z,97610.00
2023-02-01T06:31:37.614Z,97619.00
2023-02-01T06:34:04.248Z,97619.00
2023-02-01T06:36:30.560Z,97597.00
2023-02-01T06:38:57.139Z,97617.00
2023-02-01T06:41:24.009Z,97627.00
2023-02-01T06:43:50.205Z,97620.00
2023-02-01T06:46:16.486Z,97622.00
2023-02-01T06:48:42.738Z,97657.00
2023-02-01T06:51:24.431Z,97649.00
2023-02-01T06:53:51.433Z,97658.00
2023-02-01T06:56:18.340Z,97636.00
2023-02-01T06:58:44.975Z,97638.00
2023-02-01T07:01:11.816Z,97631.00
2023-02-01T07:03:38.862Z,97640.00
2023-02-01T07:06:06.244Z,97653.00
2023-02-01T07:08:35.331Z,97651.00
2023-02-01T07:11:07.999Z,97645.00
2023-02-01T07:13:35.094Z,97655.00
2023-02-01T07:16:05.033Z,97652.00
2023-02-01T07:18:32.918Z,97655.00
2023-02-01T07:21:00.263Z,97649.00
2023-02-01T07:23:27.582Z,97661.00
2023-02-01T07:26:05.976Z,97654.00
2023-02-01T07:28:35.827Z,97657.00
2023-02-01T07:31:11.616Z,97687.00
2023-02-01T07:33:37.893Z,97670.00
2023-02-01T07:36:07.271Z,97687.00
2023-02-01T07:38:34.071Z,97675.00
2023-02-01T07:41:08.252Z,97675.00
2023-02-01T07:43:35.714Z,97693.00
2023-02-01T07:46:04.426Z,97684.00
2023-02-01T07:48:32.118Z,97677.00
2023-02-01T07:51:12.663Z,97698.00
2023-02-01T07:53:40.251Z,97684.00
2023-02-01T07:56:16.518Z,97710.00
2023-02-01T07:58:43.396Z,97697.00
2023-02-01T08:01:23.017Z,97695.00
2023-02-01T08:03:56.031Z,97696.00
2023-02-01T08:06:23.715Z,97714.00
2023-02-01T08:08:50.719Z,97686.00
2023-02-01T08:11:18.575Z,97672.00
2023-02-01T08:13:44.972Z,97685.00
2023-02-01T08:16:13.794Z,97707.00
2023-02-01T08:18:41.861Z,97710.00
2023-02-01T08:21:14.563Z,97708.00
2023-02-01T08:23:42.308Z,97716.00
2023-02-01T08:26:16.087Z,97690.00
2023-02-01T08:28:49.849Z,97716.00
2023-02-01T08:31:20.460Z,97717.00
2023-02-01T08:33:52.880Z,97704.00
2023-02-01T08:36:20.410Z,97721.00
2023-02-01T08:38:46.778Z,97703.00
2023-02-01T08:41:17.887Z,97716.00
2023-02-01T08:43:45.027Z,97712.00
2023-02-01T08:46:12.028Z,97719.00
2023-02-01T08:48:39.033Z,97732.00
2023-02-01T08:51:11.743Z,97711.00
2023-02-01T08:53:41.479Z,97732.00
2023-02-01T08:56:09.895Z,97745.00
2023-02-01T08:58:36.338Z,97728.00
2023-02-01T09:01:20.917Z,97742.00
2023-02-01T09:03:47.276Z,97721.00
2023-02-01T09:06:15.568Z,97723.00
2023-02-01T09:08:42.670Z,97750.00
2023-02-01T09:11:14.782Z,97741.00
2023-02-01T09:13:41.094Z,97730.00
2023-02-01T09:16:07.539Z,97741.00
2023-02-01T09:18:34.178Z,97739.00
2023-02-01T09:21:07.804Z,97736.00
2023-02-01T09:23:34.844Z,97723.00
2023-02-01T09:26:03.522Z,97739.00
2023-02-01T09:28:30.611Z,97728.00
2023-02-01T09:30:58.996Z,97729.00
2023-02-01T09:33:27.879Z,97746.00
2023-02-01T09:35:59.183Z,97727.00
2023-02-01T09:38:27.497Z,97738.00
2023-02-01T09:40:55.264Z,97724.00
2023-02-01T09:43:52.959Z,97717.00
2023-02-01T09:46:26.311Z,97717.00
2023-02-01T09:48:58.752Z,97715.00
2023-02-01T09:51:33.995Z,97712.00
2023-02-01T09:54:23.258Z,97715.00
2023-02-01T09:57:07.245Z,97702.00
2023-02-01T10:00:06.647Z,97708.00
2023-02-01T10:02:40.627Z,97717.00
2023-02-01T10:05:21.620Z,97713.00
2023-02-01T10:08:02.097Z,97724.00
2023-02-01T10:10:40.811Z,97703.00
2023-02-01T10:13:17.739Z,97723.00
2023-02-01T10:16:16.522Z,97719.00
2023-02-01T10:18:55.798Z,97721.00
2023-02-01T10:21:58.243Z,97701.00
2023-02-01T10:24:57.291Z,97708.00
2023-02-01T10:27:43.982Z,97702.00
2023-02-01T10:30:24.673Z,97707.00
2023-02-01T10:33:06.082Z,97721.00
2023-02-01T10:35:38.758Z,97699.00
2023-02-01T10:38:26.466Z,97707.00
2023-02-01T10:40:57.368Z,97694.00
2023-02-01T10:43:23.774Z,97706.00
2023-02-01T10:45:50.114Z,97708.00
2023-02-01T10:48:16.541Z,97713.00
2023-02-01T10:51:02.679Z,97720.00
2023-02-01T10:53:55.682Z,97717.00
2023-02-01T10:56:25.568Z,97708.00
2023-02-01T10:59:01.049Z,97702.00
2023-02-01T11:01:35.647Z,97696.00
2023-02-01T11:04:06.178Z,97666.00
2023-02-01T11:06:38.063Z,97698.00
2023-02-01T11:09:10.333Z,97688.00
2023-02-01T11:11:59.085Z,97685.00
2023-02-01T11:14:25.195Z,97684.00
2023-02-01T11:17:19.583Z,97696.00
2023-02-01T11:19:57.146Z,97694.00
2023-02-01T11:22:28.166Z,97688.00
2023-02-01T11:24:54.389Z,97651.00
2023-02-01T11:27:27.601Z,97656.00
2023-02-01T11:30:04.450Z,97675.00
2023-02-01T11:32:31.355Z,97674.00
2023-02-01T11:35:04.113Z,97649.00
2023-02-01T11:37:43.547Z,97665.00
2023-02-01T11:40:18.876Z,97673.00
2023-02-01T11:42:58.230Z,97662.00
2023-02-01T11:45:37.720Z,97653.00
2023-02-01T11:48:26.207Z,97674.00
2023-02-01T11:51:32.318Z,97655.00
2023-02-01T11:54:35.884Z,97652.00
2023-02-01T11:57:23.991Z,97671.00
2023-02-01T12:00:33.615Z,97672.00
2023-02-01T12:03:14.809Z,97637.00
2023-02-01T12:06:16.702Z,97643.00
2023-02-01T12:09:16.540Z,97656.00
2023-02-01T12:12:08.460Z,97642.00
2023-02-01T12:14:46.981Z,97653.00
2023-02-01T12:17:46.991Z,97651.00
2023-02-01T12:20:57.030Z,97610.00
2023-02-01T12:23:54.790Z,97617.00
2023-02-01T12:26:50.118Z,97625.00
2023-02-01T12:29:56.524Z,97610.00
2023-02-01T12:32:56.807Z,97603.00
2023-02-01T12:35:37.268Z,97602.00
2023-02-01T12:38:25.643Z,97605.00
2023-02-01T12:41:09.359Z,97592.00
2023-02-01T12:43:42.799Z,97595.00
2023-02-01T12:46:32.884Z,97603.00
2023-02-01T12:49:07.120Z,97595.00
2023-02-01T12:51:41.374Z,97604.00
2023-02-01T12:54:26.123Z,97600.00
2023-02-01T12:57:10.997Z,97589.00
2023-02-01T12:59:51.485Z,97589.00
2023-02-01T13:03:08.700Z,97585.00
2023-02-01T13:05:59.993Z,97580.00
2023-02-01T13:08:43.972Z,97577.00
2023-02-01T13:11:23.455Z,97574.00
2023-02-01T13:14:12.577Z,97570.00
2023-02-01T13:16:59.704Z,97576.00
2023-02-01T13:19:55.451Z,97579.00
2023-02-01T13:22:45.255Z,97574.00
2023-02-01T13:25:16.330Z,97567.00
2023-02-01T13:27:42.645Z,97562.00
2023-02-01T13:30:27.277Z,97561.00
2023-02-01T13:33:53.194Z,97567.00
2023-02-01T13:36:57.524Z,97562.00
2023-02-01T13:40:12.022Z,97567.00
2023-02-01T13:42:56.522Z,97556.00
2023-02-01T13:45:31.173Z,97566.00
2023-02-01T13:48:03.945Z,97553.00
2023-02-01T13:50:38.990Z,97530.00
2023-02-01T13:53:21.090Z,97538.00
2023-02-01T13:55:58.943Z,97565.00
2023-02-01T13:58:38.489Z,97555.00
2023-02-01T14:01:23.068Z,97561.00
2023-02-01T14:04:05.899Z,97543.00
2023-02-01T14:06:33.023Z,97548.00
2023-02-01T14:09:19.751Z,97550.00
2023-02-01T14:11:59.027Z,97554.00
2023-02-01T14:14:25.247Z,97546.00
2023-02-01T14:16:54.408Z,97532.00
2023-02-01T14:19:31.873Z,97549.00
2023-02-01T14:22:20.754Z,97560.00
2023-02-01T14:24:58.236Z,97555.00
2023-02-01T14:27:29.494Z,97533.00
2023-02-01T14:30:05.563Z,97550.00
2023-02-01T14:32:41.814Z,97557.00
2023-02-01T14:35:27.280Z,97542.00
2023-02-01T14:38:02.808Z,97570.00
2023-02-01T14:40:30.077Z,97559.00
2023-02-01T14:42:57.306Z,97562.00
2023-02-01T14:45:24.281Z,97574.00
2023-02-01T14:48:15.771Z,97581.00
2023-02-01T14:50:48.577Z,97590.00
2023-02-01T14:53:23.718Z,97569.00
2023-02-01T14:56:15.127Z,97576.00
2023-02-01T14:59:06.425Z,97589.00
2023-02-01T15:01:36.203Z,97576.00
2023-02-01T15:04:10.580Z,97578.00
2023-02-01T15:06:41.880Z,97569.00
2023-02-01T15:09:26.889Z,97573.00
2023-02-01T15:12:02.928Z,97577.00
2023-02-01T15:14:35.932Z,97584.00
2023-02-01T15:17:17.038Z,97590.00
2023-02-01T15:19:57.931Z,97579.00
2023-02-01T15:22:26.669Z,97582.00
2023-02-01T15:24:58.198Z,97584.00
2023-02-01T15:27:26.295Z,97581.00
2023-02-01T15:29:52.560Z,97601.00
2023-02-01T15:32:40.089Z,97581.00
2023-02-01T15:35:38.010Z,97594.00
2023-02-01T15:38:37.359Z,97603.00
2023-02-01T15:41:16.623Z,97604.00
2023-02-01T15:43:54.923Z,97587.00
2023-02-01T15:46:39.795Z,97584.00
2023-02-01T15:49:28.489Z,97603.00
2023-02-01T15:51:55.624Z,97602.00
2023-02-01T15:54:33.072Z,97594.00
2023-02-01T15:57:05.628Z,97599.00
2023-02-01T15:59:43.258Z,97580.00
2023-02-01T16:02:58.246Z,97611.00
2023-02-01T16:05:40.314Z,97602.00
2023-02-01T16:08:17.465Z,97613.00
2023-02-01T16:10:47.170Z,97612.00
2023-02-01T16:13:15.813Z,97600.00
2023-02-01T16:15:42.744Z,97598.00
2023-02-01T16:18:10.404Z,97590.00
2023-02-01T16:20:39.268Z,97610.00
2023-02-01T16:23:07.160Z,97598.00
2023-02-01T16:25:34.305Z,97611.00
2023-02-01T16:28:00.549Z,97596.00
2023-02-01T16:30:26.903Z,97618.00
2023-02-01T16:32:58.844Z,97626.00
2023-02-01T16:35:37.624Z,97626.00
2023-02-01T16:38:12.380Z,97615.00
2023-02-01T16:40:40.905Z,97612.00
2023-02-01T16:43:23.224Z,97622.00
2023-02-01T16:45:53.619Z,97628.00
2023-02-01T16:48:22.354Z,97639.00
2023-02-01T16:50:54.210Z,97619.00
2023-02-01T16:53:22.434Z,97617.00
2023-02-01T16:55:49.835Z,97596.00
2023-02-01T16:58:17.122Z,97612.00
2023-02-01T17:00:44.813Z,97600.00
2023-02-01T17:03:19.259Z,97596.00
2023-02-01T17:05:53.210Z,97585.00
2023-02-01T17:08:35.379Z,97589.00
2023-02-01T17:11:03.460Z,97604.00
2023-02-01T17:13:30.217Z,97611.00
2023-02-01T17:16:09.820Z,97614.00
2023-02-01T17:18:36.484Z,97600.00
2023-02-01T17:21:05.077Z,97608.00
2023-02-01T17:23:32.594Z,97628.00
2023-02-01T17:25:58.872Z,97624.00
2023-02-01T17:28:25.405Z,97636.00
2023-02-01T17:30:51.740Z,97620.00
2023-02-01T17:33:27.856Z,97625.00
2023-02-01T17:35:56.335Z,97613.00
2023-02-01T17:38:24.070Z,97620.00
2023-02-01T17:40:50.848Z,97629.00
2023-02-01T17:43:24.854Z,97618.00
2023-02-01T17:46:03.516Z,97615.00
2023-02-01T17:48:29.777Z,97626.00
2023-02-01T17:50:59.041Z,97645.00
2023-02-01T17:53:27.332Z,97636.00
2023-02-01T17:55:57.304Z,97639.00
2023-02-01T17:58:25.620Z,97630.00
2023-02-01T18:00:52.811Z,97630.00
2023-02-01T18:03:29.420Z,97623.00
2023-02-01T18:05:57.393Z,97628.00
2023-02-01T18:08:27.423Z,97638.00
2023-02-01T18:11:00.105Z,97642.00
2023-02-01T18:13:27.874Z,97636.00
2023-02-01T18:15:55.021Z,97634.00
2023-02-01T18:18:21.601Z,97641.00
2023-02-01T18:20:48.842Z,97650.00
2023-02-01T18:23:23.599Z,97630.00
2023-02-01T18:25:52.008Z,97641.00
2023-02-01T18:28:19.905Z,97634.00
2023-02-01T18:30:51.001Z,97658.00
2023-02-01T18:33:20.061Z,97643.00
2023-02-01T18:35:46.924Z,97650.00
2023-02-01T18:38:13.645Z,97651.00
2023-02-01T18:40:51.832Z,97639.00
2023-02-01T18:43:18.937Z,97646.00
2023-02-01T18:45:46.834Z,97637.00
2023-02-01T18:48:16.903Z,97649.00
2023-02-01T18:50:45.140Z,97641.00
2023-02-01T18:53:20.382Z,97638.00
2023-02-01T18:55:47.631Z,97610.00
2023-02-01T18:58:16.143Z,97645.00
2023-02-01T19:00:44.661Z,97646.00
2023-02-01T19:03:13.440Z,97639.00
2023-02-01T19:05:40.640Z,97636.00
2023-02-01T19:08:07.425Z,97653.00
2023-02-01T19:10:35.477Z,97625.00
2023-02-01T19:13:01.670Z,97620.00
2023-02-01T19:15:28.070Z,97637.00
2023-02-01T19:17:54.667Z,97643.00
2023-02-01T19:20:24.896Z,97644.00
2023-02-01T19:22:53.608Z,97635.00
2023-02-01T19:25:27.048Z,97625.00
2023-02-01T19:27:53.747Z,97621.00
2023-02-01T19:30:22.096Z,97605.00
2023-02-01T19:32:50.038Z,97622.00
2023-02-01T19:35:18.860Z,97606.00
2023-02-01T19:37:47.896Z,97616.00
2023-02-01T19:40:19.317Z,97624.00
2023-02-01T19:42:46.503Z,97596.00
2023-02-01T19:45:15.532Z,97601.00
2023-02-01T19:47:42.081Z,97637.00
2023-02-01T19:50:15.245Z,97640.00
2023-02-01T19:52:41.405Z,97657.00
2023-02-01T19:55:08.003Z,97649.00
2023-02-01T19:57:35.623Z,97640.00
2023-02-01T20:00:02.883Z,97662.00
2023-02-01T20:02:29.496Z,97640.00
2023-02-01T20:04:55.847Z,97666.00
2023-02-01T20:07:22.323Z,97658.00
2023-02-01T20:09:48.632Z,97648.00
2023-02-01T20:12:14.980Z,97640.00
2023-02-01T20:14:41.244Z,97637.00
2023-02-01T20:17:13.142Z,97627.00
2023-02-01T20:19:39.336Z,97630.00
2023-02-01T20:22:05.542Z,97629.00
2023-02-01T20:24:31.680Z,97624.00
2023-02-01T20:26:58.846Z,97645.00
2023-02-01T20:29:25.141Z,97646.00
2023-02-01T20:31:51.390Z,97645.00
2023-02-01T20:34:17.533Z,97657.00
2023-02-01T20:36:43.762Z,97644.00
2023-02-01T20:39:10.155Z,97635.00
2023-02-01T20:41:36.797Z,97652.00
2023-02-01T20:44:03.039Z,97637.00
2023-02-01T20:46:29.249Z,97626.00
2023-02-01T20:48:55.477Z,97630.00
2023-02-01T20:51:21.656Z,97649.00
2023-02-01T20:53:50.774Z,97651.00
2023-02-01T20:56:18.057Z,97647.00
2023-02-01T20:58:44.380Z,97654.00
2023-02-01T21:01:11.137Z,97650.00
2023-02-01T21:03:37.773Z,97631.00
2023-02-01T21:06:05.854Z,97647.00
2023-02-01T21:08:32.663Z,97657.00
2023-02-01T21:11:08.517Z,97670.00
2023-02-01T21:13:42.112Z,97683.00
2023-02-01T21:16:11.981Z,97721.00
2023-02-01T21:18:39.196Z,97723.00
2023-02-01T21:21:13.526Z,97707.00
2023-02-01T21:23:45.686Z,97693.00
2023-02-01T21:26:18.275Z,97719.00
2023-02-01T21:28:44.775Z,97735.00
2023-02-01T21:31:13.302Z,97722.00
2023-02-01T21:33:39.875Z,97725.00
2023-02-01T21:36:06.649Z,97713.00
2023-02-01T21:38:34.150Z,97715.00
2023-02-01T21:41:19.428Z,97711.00
2023-02-01T21:43:45.646Z,97701.00
2023-02-01T21:46:11.969Z,97705.00
2023-02-01T21:49:04.450Z,97712.00
2023-02-01T21:51:27.465Z,97705.00
2023-02-01T21:53:53.789Z,97722.00
2023-02-01T21:56:19.926Z,97729.00
2023-02-01T21:58:46.115Z,97720.00
2023-02-01T22:01:12.289Z,97724.00
2023-02-01T22:03:38.457Z,97733.00
2023-02-01T22:06:05.231Z,97714.00
2023-02-01T22:08:36.326Z,97719.00
2023-02-01T22:11:02.908Z,97721.00
2023-02-01T22:13:29.601Z,97727.00
2023-02-01T22:15:57.578Z,97710.00
2023-02-01T22:18:23.876Z,97708.00
2023-02-01T22:20:50.003Z,97743.00
2023-02-01T22:23:16.513Z,97706.00
2023-02-01T22:25:42.718Z,97719.00
2023-02-01T22:28:31.180Z,97701.00
2023-02-01T22:31:01.197Z,97705.00
2023-02-01T22:33:27.988Z,97715.00
2023-02-01T22:35:54.364Z,97702.00
2023-02-01T22:38:20.562Z,97699.00
2023-02-01T22:40:58.023Z,97695.00
2023-02-01T22:43:25.393Z,97701.00
2023-02-01T22:45:52.344Z,97725.00
2023-02-01T22:48:18.554Z,97734.00
2023-02-01T22:50:45.051Z,97718.00
2023-02-01T22:53:11.971Z,97725.00
2023-02-01T22:55:40.141Z,97740.00
2023-02-01T22:58:07.497Z,97742.00
2023-02-01T23:00:33.837Z,97756.00
2023-02-01T23:03:00.117Z,97770.00
2023-02-01T23:05:26.493Z,97780.00
2023-02-01T23:07:52.680Z,97772.00
2023-02-01T23:10:20.964Z,97776.00
2023-02-01T23:12:47.837Z,97778.00
2023-02-01T23:15:15.435Z,97775.00
2023-02-01T23:17:43.475Z,97765.00
2023-02-01T23:20:17.094Z,97774.00
2023-02-01T23:22:45.671Z,97772.00
2023-02-01T23:25:16.014Z,97772.00
2023-02-01T23:27:43.626Z,97791.00
2023-02-01T23:30:11.446Z,97771.00
2023-02-01T23:32:37.700Z,97787.00
2023-02-01T23:35:06.399Z,97787.00
2023-02-01T23:37:32.596Z,97795.00
2023-02-01T23:39:58.824Z,97800.00
2023-02-01T23:42:24.973Z,97789.00
2023-02-01T23:44:51.159Z,97798.00
2023-02-01T23:47:17.380Z,97789.00
2023-02-01T23:49:44.762Z,97783.00
2023-02-01T23:52:11.214Z,97789.00
2023-02-01T23:54:37.657Z,97790.00
2023-02-01T23:57:03.881Z,97808.00
2023-02-01T23:59:30.074Z,97844.00
